Time;durP1;ratioP1;P1;durP2;ratioP2;P2;SDS_P1;SDS_P2;PMS_P1;PMS_P2;Temp;Humidity;BMP_temperature;BMP_pressure;BME280_temperature;BME280_humidity;BME280_pressure;Samples;Min_cycle;Max_cycle;Signal;HPM_P1;HPM_P2
2023/08/06 00:02:23;;;;;;;9.20;6.57;;;;;15.60;99999.00;;;;5023778;28;20599;-71
2023/08/06 00:05:09;;;;;;;11.80;8.07;;;;;15.70;100011.00;;;;5024227;28;20265;-71
2023/08/06 00:07:56;;;;;;;11.93;7.07;;;;;15.70;100002.00;;;;5025298;28;20264;-70
2023/08/06 00:10:42;;;;;;;12.17;7.17;;;;;15.60;100005.00;;;;5014490;28;20244;-71
2023/08/06 00:13:29;;;;;;;10.80;6.97;;;;;15.60;100002.00;;;;5024451;28;20344;-72
2023/08/06 00:16:15;;;;;;;10.33;6.93;;;;;15.70;100001.00;;;;5021168;28;20233;-71
2023/08/06 00:19:03;;;;;;;11.60;6.90;;;;;15.70;99996.00;;;;5025015;28;20607;-71
2023/08/06 00:21:50;;;;;;;9.93;7.27;;;;;15.70;99996.00;;;;5025369;28;20226;-71
2023/08/06 00:24:36;;;;;;;11.27;7.37;;;;;15.70;99993.00;;;;5026240;28;20279;-71
2023/08/06 00:27:23;;;;;;;10.87;7.30;;;;;15.80;99996.00;;;;5025896;28;20695;-72
2023/08/06 00:30:10;;;;;;;11.77;7.57;;;;;15.70;99995.00;;;;5026573;28;20358;-72
2023/08/06 00:32:56;;;;;;;12.23;7.87;;;;;15.70;100003.00;;;;5019738;28;20286;-71
2023/08/06 00:35:44;;;;;;;12.50;7.40;;;;;15.70;99998.00;;;;5014996;28;20841;-71
2023/08/06 00:38:30;;;;;;;12.20;7.13;;;;;15.90;99989.00;;;;5021290;28;20905;-71
2023/08/06 00:41:17;;;;;;;11.43;8.00;;;;;15.80;99986.00;;;;5026579;28;20296;-70
2023/08/06 00:44:03;;;;;;;14.57;8.77;;;;;15.70;99985.00;;;;5025487;28;20629;-69
2023/08/06 00:46:50;;;;;;;12.40;8.00;;;;;15.80;99980.00;;;;5025601;28;20304;-69
2023/08/06 00:49:37;;;;;;;15.80;8.30;;;;;15.60;99991.00;;;;5026196;28;20310;-71
2023/08/06 00:52:25;;;;;;;12.80;7.87;;;;;15.60;99973.00;;;;5021971;28;20272;-71
2023/08/06 00:55:12;;;;;;;14.57;8.00;;;;;15.60;99977.00;;;;5025971;28;20710;-71
2023/08/06 00:57:58;;;;;;;13.37;7.50;;;;;15.70;99966.00;;;;5026017;28;20610;-71
2023/08/06 01:00:45;;;;;;;12.70;8.23;;;;;15.70;99973.00;;;;5026093;28;20316;-69
2023/08/06 01:03:32;;;;;;;12.83;8.50;;;;;15.60;99955.00;;;;5022120;28;20237;-70
2023/08/06 01:06:24;;;;;;;11.63;7.80;;;;;15.70;99954.00;;;;5025976;28;20257;-71
2023/08/06 01:09:22;;;;;;;11.03;7.80;;;;;15.60;99959.00;;;;5020657;28;20718;-71
2023/08/06 01:12:20;;;;;;;9.53;7.70;;;;;15.70;99942.00;;;;5020143;28;20611;-71
2023/08/06 01:15:15;;;;;;;13.77;7.50;;;;;15.70;99957.00;;;;5024509;28;20610;-71
2023/08/06 01:18:19;;;;;;;15.03;8.53;;;;;15.70;99951.00;;;;5024230;28;20233;-71
2023/08/06 01:21:07;;;;;;;13.57;9.23;;;;;15.80;99943.00;;;;5025262;28;20230;-71
2023/08/06 01:23:54;;;;;;;14.20;9.00;;;;;15.80;99939.00;;;;5025702;28;20233;-71
2023/08/06 01:26:46;;;;;;;12.13;8.63;;;;;15.70;99943.00;;;;5024076;28;20257;-71
2023/08/06 01:29:39;;;;;;;13.77;8.23;;;;;15.80;99946.00;;;;5024329;28;20602;-72
2023/08/06 01:32:26;;;;;;;12.80;9.13;;;;;15.80;99940.00;;;;5024730;28;20247;-72
2023/08/06 01:35:16;;;;;;;11.80;8.37;;;;;15.70;99938.00;;;;5020275;28;20228;-71
2023/08/06 01:38:04;;;;;;;12.37;8.77;;;;;15.70;99935.00;;;;5018631;28;20358;-71
2023/08/06 01:40:50;;;;;;;12.07;8.70;;;;;15.70;99932.00;;;;5015613;28;20303;-71
2023/08/06 01:43:37;;;;;;;15.30;9.07;;;;;15.70;99927.00;;;;5024652;28;20240;-71
2023/08/06 01:46:24;;;;;;;14.37;8.57;;;;;15.60;99922.00;;;;5024472;28;20229;-71
2023/08/06 01:49:10;;;;;;;12.23;8.57;;;;;15.60;99913.00;;;;5025020;28;20233;-70
2023/08/06 01:51:56;;;;;;;13.53;9.50;;;;;15.70;99915.00;;;;5018633;28;20725;-71
2023/08/06 01:54:44;;;;;;;11.40;8.50;;;;;15.60;99912.00;;;;5022071;28;20244;-70
2023/08/06 01:57:31;;;;;;;14.87;9.23;;;;;15.70;99909.00;;;;5017317;28;20356;-71
2023/08/06 02:00:17;;;;;;;14.97;9.87;;;;;15.60;99913.00;;;;5018633;28;20404;-71
2023/08/06 02:03:04;;;;;;;12.17;8.70;;;;;15.70;99912.00;;;;5024624;28;20283;-70
2023/08/06 02:05:51;;;;;;;12.40;8.87;;;;;15.80;99907.00;;;;5024204;28;21120;-71
2023/08/06 02:08:40;;;;;;;15.63;8.87;;;;;15.70;99906.00;;;;5011023;28;20233;-71
2023/08/06 02:11:28;;;;;;;15.67;9.30;;;;;15.70;99911.00;;;;5023380;28;20279;-67
2023/08/06 02:14:14;;;;;;;12.80;9.20;;;;;15.70;99902.00;;;;5018946;28;20587;-70
2023/08/06 02:17:01;;;;;;;14.47;9.40;;;;;15.60;99904.00;;;;5016755;28;20233;-71
2023/08/06 02:19:47;;;;;;;11.97;8.70;;;;;15.70;99898.00;;;;5023833;28;20241;-71
2023/08/06 02:22:34;;;;;;;13.47;8.50;;;;;15.70;99895.00;;;;5018050;28;20237;-71
2023/08/06 02:25:20;;;;;;;15.23;8.47;;;;;15.70;99900.00;;;;5021688;28;20295;-70
2023/08/06 02:28:08;;;;;;;14.27;9.07;;;;;15.60;99901.00;;;;5013286;28;20224;-70
2023/08/06 02:30:55;;;;;;;14.33;8.87;;;;;15.60;99900.00;;;;5022126;28;20827;-70
2023/08/06 02:33:41;;;;;;;12.93;8.50;;;;;15.70;99892.00;;;;5023408;28;20221;-71
2023/08/06 02:36:29;;;;;;;12.30;8.17;;;;;15.70;99901.00;;;;5021757;28;20592;-70
2023/08/06 02:39:15;;;;;;;12.83;8.70;;;;;15.70;99893.00;;;;5018888;28;20967;-71
2023/08/06 02:42:02;;;;;;;16.87;9.10;;;;;15.60;99899.00;;;;5022264;28;20233;-71
2023/08/06 02:44:50;;;;;;;13.23;9.27;;;;;15.70;99901.00;;;;5023070;28;20241;-70
2023/08/06 02:47:36;;;;;;;14.43;9.10;;;;;15.60;99894.00;;;;5024687;28;20333;-71
2023/08/06 02:50:23;;;;;;;20.03;8.73;;;;;15.70;99891.00;;;;5018446;28;20252;-70
2023/08/06 02:53:09;;;;;;;20.53;8.77;;;;;15.70;99887.00;;;;5024128;28;20722;-71
2023/08/06 02:55:56;;;;;;;11.40;8.40;;;;;15.60;99881.00;;;;5024355;28;20234;-71
2023/08/06 02:58:42;;;;;;;12.70;8.80;;;;;15.70;99874.00;;;;5022164;28;21007;-70
2023/08/06 03:01:30;;;;;;;12.23;8.50;;;;;15.70;99868.00;;;;5025523;28;20248;-70
2023/08/06 03:04:18;;;;;;;13.20;8.63;;;;;15.70;99863.00;;;;5017683;28;20229;-71
2023/08/06 03:07:05;;;;;;;15.53;8.37;;;;;15.60;99867.00;;;;5018597;28;20282;-70
2023/08/06 03:09:51;;;;;;;12.47;7.90;;;;;15.60;99859.00;;;;5026450;28;20284;-71
2023/08/06 03:12:38;;;;;;;11.90;8.50;;;;;15.60;99855.00;;;;5027602;28;20695;-70
2023/08/06 03:15:24;;;;;;;12.10;7.73;;;;;15.70;99862.00;;;;5023571;28;20249;-70
2023/08/06 03:18:12;;;;;;;12.90;8.23;;;;;15.60;99853.00;;;;5028265;28;20229;-71
2023/08/06 03:20:58;;;;;;;11.03;7.10;;;;;15.60;99857.00;;;;5027094;28;20245;-71
2023/08/06 03:23:47;;;;;;;11.17;7.40;;;;;15.60;99849.00;;;;5027793;28;20235;-70
2023/08/06 03:26:34;;;;;;;14.67;7.67;;;;;15.60;99844.00;;;;5024229;28;20260;-70
2023/08/06 03:29:21;;;;;;;10.33;7.67;;;;;15.70;99851.00;;;;5017196;28;20229;-70
2023/08/06 03:32:08;;;;;;;10.67;7.43;;;;;15.60;99846.00;;;;5019183;28;20324;-70
2023/08/06 03:34:56;;;;;;;10.17;7.40;;;;;15.60;99837.00;;;;5026073;28;20245;-70
2023/08/06 03:37:42;;;;;;;11.73;8.13;;;;;15.60;99838.00;;;;5014214;28;20225;-70
2023/08/06 03:40:29;;;;;;;13.47;7.80;;;;;15.60;99841.00;;;;5022811;28;20292;-70
2023/08/06 03:43:15;;;;;;;10.80;7.37;;;;;15.50;99835.00;;;;5017574;28;20291;-70
2023/08/06 03:46:01;;;;;;;10.53;7.90;;;;;15.50;99837.00;;;;5026874;28;20614;-71
2023/08/06 03:48:48;;;;;;;11.03;7.63;;;;;15.50;99841.00;;;;5026400;28;20237;-71
2023/08/06 03:51:35;;;;;;;12.27;7.03;;;;;15.50;99832.00;;;;5021085;28;20252;-70
2023/08/06 03:54:22;;;;;;;13.07;7.47;;;;;15.60;99835.00;;;;5018224;28;20253;-71
2023/08/06 03:57:09;;;;;;;14.27;7.43;;;;;15.60;99847.00;;;;5020002;28;20384;-70
2023/08/06 03:59:56;;;;;;;12.30;7.77;;;;;15.50;99838.00;;;;5027682;28;20223;-70
2023/08/06 04:02:42;;;;;;;11.90;7.43;;;;;15.40;99841.00;;;;5026528;28;20852;-71
2023/08/06 04:05:31;;;;;;;11.63;7.50;;;;;15.40;99833.00;;;;5023265;28;20744;-70
2023/08/06 04:08:19;;;;;;;12.97;7.37;;;;;15.40;99831.00;;;;5018905;28;20236;-70
2023/08/06 04:11:06;;;;;;;10.43;7.40;;;;;15.40;99833.00;;;;5026778;28;20354;-71
2023/08/06 04:13:54;;;;;;;12.73;7.70;;;;;15.40;99826.00;;;;5025795;28;20593;-70
2023/08/06 04:16:40;;;;;;;9.80;7.53;;;;;15.40;99830.00;;;;5023784;28;20238;-71
2023/08/06 04:19:27;;;;;;;9.80;7.33;;;;;15.40;99832.00;;;;5024682;28;20221;-70
2023/08/06 04:22:13;;;;;;;9.57;7.07;;;;;15.40;99827.00;;;;5013547;28;20627;-70
2023/08/06 04:25:01;;;;;;;9.40;6.87;;;;;15.40;99831.00;;;;5023223;28;20241;-70
2023/08/06 04:27:47;;;;;;;9.67;6.53;;;;;15.40;99837.00;;;;5021589;28;20804;-71
2023/08/06 04:30:34;;;;;;;9.33;6.80;;;;;15.40;99842.00;;;;5024063;28;20241;-70
2023/08/06 04:33:21;;;;;;;9.33;6.77;;;;;15.50;99839.00;;;;5022771;28;20241;-70
2023/08/06 04:36:07;;;;;;;10.77;7.27;;;;;15.50;99837.00;;;;5019440;28;20230;-71
2023/08/06 04:38:54;;;;;;;13.13;6.97;;;;;15.50;99838.00;;;;5021763;28;20283;-70
2023/08/06 04:41:42;;;;;;;12.03;6.77;;;;;15.70;99828.00;;;;5019824;28;20244;-70
2023/08/06 04:44:29;;;;;;;9.10;7.20;;;;;15.90;99836.00;;;;5018217;28;20440;-71
2023/08/06 04:47:15;;;;;;;8.33;7.13;;;;;15.60;99832.00;;;;5025903;28;20233;-70
2023/08/06 04:50:04;;;;;;;11.70;7.37;;;;;15.70;99826.00;;;;5025648;28;20229;-70
2023/08/06 04:52:51;;;;;;;8.90;7.10;;;;;15.70;99831.00;;;;5022610;28;20248;-70
2023/08/06 04:55:37;;;;;;;9.10;7.00;;;;;15.70;99833.00;;;;5024042;28;20264;-70
2023/08/06 04:58:25;;;;;;;15.57;7.23;;;;;15.60;99829.00;;;;5013368;28;20233;-71
2023/08/06 05:01:11;;;;;;;8.80;6.27;;;;;15.70;99837.00;;;;5015552;28;20349;-70
2023/08/06 05:03:58;;;;;;;8.87;7.10;;;;;15.70;99833.00;;;;5021755;28;20234;-70
2023/08/06 05:06:44;;;;;;;12.53;7.67;;;;;15.80;99848.00;;;;5024058;28;20334;-70
2023/08/06 05:09:30;;;;;;;13.77;7.73;;;;;15.80;99840.00;;;;5017735;28;20715;-70
2023/08/06 05:12:17;;;;;;;10.50;7.17;;;;;15.80;99843.00;;;;5022158;28;20234;-71
2023/08/06 05:15:05;;;;;;;11.33;7.40;;;;;15.80;99843.00;;;;5023196;28;20244;-71
2023/08/06 05:17:52;;;;;;;14.03;7.77;;;;;15.90;99833.00;;;;5020055;28;20618;-70
2023/08/06 05:20:40;;;;;;;11.47;7.70;;;;;15.90;99837.00;;;;5023277;28;20241;-71
2023/08/06 05:23:26;;;;;;;11.47;7.10;;;;;15.90;99845.00;;;;5019109;28;20291;-71
2023/08/06 05:26:14;;;;;;;10.10;7.37;;;;;16.00;99840.00;;;;5023070;28;20229;-70
2023/08/06 05:29:01;;;;;;;9.00;7.37;;;;;15.90;99842.00;;;;5018797;28;20308;-69
2023/08/06 05:31:49;;;;;;;10.63;7.20;;;;;15.90;99847.00;;;;5022428;28;20746;-71
2023/08/06 05:34:35;;;;;;;10.07;7.20;;;;;15.80;99851.00;;;;5019413;28;21643;-70
2023/08/06 05:37:21;;;;;;;10.07;7.20;;;;;15.80;99846.00;;;;5023531;28;20742;-70
2023/08/06 05:40:09;;;;;;;11.73;7.00;;;;;15.70;99856.00;;;;5020097;28;20311;-71
2023/08/06 05:42:55;;;;;;;10.60;7.20;;;;;15.60;99851.00;;;;5022098;28;20245;-70
2023/08/06 05:45:46;;;;;;;8.13;6.23;;;;;15.70;99851.00;;;;5023425;28;20618;-70
2023/08/06 05:48:34;;;;;;;10.47;6.80;;;;;15.80;99853.00;;;;5021981;28;20233;-70
2023/08/06 05:51:20;;;;;;;8.77;6.97;;;;;15.80;99846.00;;;;5019800;28;20276;-69
2023/08/06 05:54:07;;;;;;;9.47;7.10;;;;;15.90;99856.00;;;;5020012;28;20230;-71
2023/08/06 05:56:53;;;;;;;12.87;7.23;;;;;15.80;99858.00;;;;5022974;28;20237;-70
2023/08/06 05:59:41;;;;;;;11.30;6.97;;;;;15.80;99856.00;;;;5017852;28;20229;-71
2023/08/06 06:02:27;;;;;;;9.70;6.87;;;;;16.00;99858.00;;;;5019603;28;20229;-69
2023/08/06 06:05:15;;;;;;;9.50;7.33;;;;;16.00;99865.00;;;;5010610;28;20780;-70
2023/08/06 06:08:02;;;;;;;11.33;7.90;;;;;16.00;99864.00;;;;5013391;28;20240;-71
2023/08/06 06:10:49;;;;;;;11.60;8.00;;;;;16.10;99865.00;;;;5017151;28;20229;-70
2023/08/06 06:13:35;;;;;;;11.93;7.50;;;;;16.20;99871.00;;;;5016709;28;20283;-70
2023/08/06 06:16:22;;;;;;;12.17;7.70;;;;;16.20;99872.00;;;;5022652;28;20229;-70
2023/08/06 06:19:09;;;;;;;12.70;7.80;;;;;16.30;99875.00;;;;5021128;28;20275;-70
2023/08/06 06:21:58;;;;;;;9.07;7.10;;;;;16.30;99871.00;;;;5022168;28;20319;-70
2023/08/06 06:24:44;;;;;;;10.93;7.97;;;;;16.30;99878.00;;;;5016479;28;20720;-70
2023/08/06 06:27:30;;;;;;;12.10;8.00;;;;;16.30;99876.00;;;;5012822;28;20233;-70
2023/08/06 06:30:17;;;;;;;10.63;7.40;;;;;16.40;99869.00;;;;5023342;28;20233;-70
2023/08/06 06:33:04;;;;;;;11.10;7.70;;;;;16.50;99875.00;;;;5023044;28;20336;-72
2023/08/06 06:35:50;;;;;;;13.53;8.00;;;;;16.60;99865.00;;;;5023549;28;20274;-72
2023/08/06 06:38:37;;;;;;;9.77;7.70;;;;;16.70;99865.00;;;;5021328;28;20614;-72
2023/08/06 06:41:24;;;;;;;12.57;7.67;;;;;16.80;99872.00;;;;5022615;28;20228;-72
2023/08/06 06:44:10;;;;;;;15.27;8.73;;;;;16.70;99871.00;;;;5026075;28;20237;-72
2023/08/06 06:46:57;;;;;;;10.40;7.70;;;;;16.60;99877.00;;;;5026184;28;20233;-72
2023/08/06 06:49:43;;;;;;;9.73;8.10;;;;;16.70;99878.00;;;;5020170;28;20296;-72
2023/08/06 06:52:30;;;;;;;11.23;7.23;;;;;16.80;99868.00;;;;5025185;28;20256;-72
2023/08/06 06:55:18;;;;;;;13.37;7.90;;;;;16.90;99876.00;;;;5026933;28;20253;-74
2023/08/06 06:58:05;;;;;;;13.00;7.93;;;;;16.90;99873.00;;;;5028017;28;20225;-75
2023/08/06 07:00:51;;;;;;;8.37;7.13;;;;;16.80;99888.00;;;;5029871;28;20742;-73
2023/08/06 07:03:38;;;;;;;10.33;7.87;;;;;16.70;99884.00;;;;5027949;28;20367;-72
2023/08/06 07:06:24;;;;;;;11.10;7.93;;;;;16.80;99884.00;;;;5027566;28;20721;-72
2023/08/06 07:09:11;;;;;;;9.63;7.57;;;;;16.80;99880.00;;;;5023221;28;20238;-73
2023/08/06 07:11:58;;;;;;;14.23;7.43;;;;;17.00;99882.00;;;;5016650;28;20249;-72
2023/08/06 07:14:45;;;;;;;9.90;7.10;;;;;16.90;99874.00;;;;5028171;28;20936;-73
2023/08/06 07:17:31;;;;;;;11.73;7.90;;;;;16.90;99869.00;;;;5017179;28;20229;-72
2023/08/06 07:20:17;;;;;;;12.77;7.60;;;;;17.10;99865.00;;;;5026318;28;20233;-73
2023/08/06 07:23:04;;;;;;;12.43;8.27;;;;;17.40;99869.00;;;;5027630;28;20272;-72
2023/08/06 07:25:54;;;;;;;11.40;8.53;;;;;17.60;99866.00;;;;5028202;28;20268;-73
2023/08/06 07:28:42;;;;;;;10.87;7.13;;;;;17.80;99867.00;;;;5028492;28;20237;-73
2023/08/06 07:31:28;;;;;;;9.40;7.50;;;;;17.80;99874.00;;;;5027577;28;20226;-73
2023/08/06 07:34:15;;;;;;;10.20;7.33;;;;;17.90;99882.00;;;;5012544;28;20250;-70
2023/08/06 07:37:01;;;;;;;8.53;6.40;;;;;17.70;99889.00;;;;5027944;28;20353;-72
2023/08/06 07:39:48;;;;;;;6.67;5.97;;;;;17.50;99884.00;;;;5020768;28;20700;-72
2023/08/06 07:42:35;;;;;;;8.73;5.87;;;;;17.80;99891.00;;;;5027746;28;20228;-73
2023/08/06 07:45:22;;;;;;;10.37;5.90;;;;;17.80;99889.00;;;;5025968;28;20237;-72
2023/08/06 07:48:09;;;;;;;10.63;6.57;;;;;17.80;99890.00;;;;5024375;28;20234;-72
2023/08/06 07:50:56;;;;;;;10.00;6.20;;;;;17.90;99900.00;;;;5026638;28;20335;-72
2023/08/06 07:53:42;;;;;;;10.50;6.20;;;;;17.70;99895.00;;;;5020908;28;20284;-72
2023/08/06 07:56:29;;;;;;;11.27;6.33;;;;;17.90;99903.00;;;;5022345;28;20222;-73
2023/08/06 07:59:15;;;;;;;9.33;6.43;;;;;17.80;99899.00;;;;5026627;28;20237;-72
2023/08/06 08:02:04;;;;;;;9.70;6.97;;;;;17.60;99899.00;;;;5027437;28;20273;-72
2023/08/06 08:04:51;;;;;;;12.30;6.50;;;;;17.70;99903.00;;;;5021098;28;20726;-73
2023/08/06 08:07:37;;;;;;;9.13;6.17;;;;;17.70;99904.00;;;;5024888;28;20229;-72
2023/08/06 08:10:24;;;;;;;8.33;6.67;;;;;17.80;99903.00;;;;5026208;28;20229;-72
2023/08/06 08:13:10;;;;;;;9.23;7.57;;;;;17.80;99910.00;;;;5022031;28;20609;-73
2023/08/06 08:16:00;;;;;;;8.77;7.00;;;;;17.90;99902.00;;;;5021874;28;20319;-73
2023/08/06 08:18:48;;;;;;;8.73;6.37;;;;;17.90;99914.00;;;;5020257;28;20237;-73
2023/08/06 08:21:34;;;;;;;9.80;7.07;;;;;17.90;99909.00;;;;5025861;28;20368;-72
2023/08/06 08:24:23;;;;;;;7.50;6.50;;;;;17.90;99901.00;;;;5026351;28;20345;-73
2023/08/06 08:27:10;;;;;;;9.43;6.90;;;;;17.90;99908.00;;;;5027008;28;20768;-70
2023/08/06 08:29:56;;;;;;;7.67;6.50;;;;;17.90;99908.00;;;;5024197;28;20263;-72
2023/08/06 08:32:42;;;;;;;7.73;6.80;;;;;17.90;99908.00;;;;5025067;28;20238;-72
2023/08/06 08:35:30;;;;;;;9.63;6.77;;;;;18.00;99907.00;;;;5024497;28;20311;-72
2023/08/06 08:38:17;;;;;;;9.10;6.33;;;;;18.10;99910.00;;;;5018808;28;20233;-72
2023/08/06 08:41:03;;;;;;;8.23;6.07;;;;;17.90;99903.00;;;;5030932;28;20229;-72
2023/08/06 08:43:51;;;;;;;8.13;6.30;;;;;18.10;99909.00;;;;5019664;28;20233;-71
2023/08/06 08:46:40;;;;;;;6.13;5.53;;;;;18.20;99908.00;;;;5024104;28;20358;-72
2023/08/06 08:49:29;;;;;;;6.57;5.30;;;;;18.40;99902.00;;;;5025608;28;20315;-71
2023/08/06 08:52:18;;;;;;;5.70;5.10;;;;;18.40;99901.00;;;;5022860;28;20233;-72
2023/08/06 08:55:07;;;;;;;5.60;5.00;;;;;18.50;99899.00;;;;5016462;28;20359;-72
2023/08/06 08:57:54;;;;;;;7.67;5.57;;;;;18.50;99902.00;;;;5023612;28;20229;-72
2023/08/06 09:00:42;;;;;;;5.73;4.90;;;;;18.70;99895.00;;;;5030352;28;20229;-72
2023/08/06 09:03:28;;;;;;;9.43;5.43;;;;;18.60;99898.00;;;;5023823;28;20348;-72
2023/08/06 09:06:16;;;;;;;6.87;4.90;;;;;18.70;99911.00;;;;5023088;28;20241;-71
2023/08/06 09:09:09;;;;;;;7.20;5.33;;;;;18.50;99905.00;;;;5021010;28;20390;-72
2023/08/06 09:12:01;;;;;;;5.40;4.90;;;;;18.70;99902.00;;;;5020194;28;20288;-71
2023/08/06 09:14:48;;;;;;;5.53;4.60;;;;;18.90;99908.00;;;;5021046;28;20236;-72
2023/08/06 09:17:34;;;;;;;7.47;5.30;;;;;19.00;99902.00;;;;5019002;28;20719;-71
2023/08/06 09:20:21;;;;;;;6.47;4.80;;;;;19.20;99904.00;;;;5022353;28;20233;-71
2023/08/06 09:23:09;;;;;;;5.73;5.20;;;;;19.00;99909.00;;;;5024331;28;20372;-73
2023/08/06 09:25:57;;;;;;;6.07;4.90;;;;;18.90;99916.00;;;;5020314;28;20245;-72
2023/08/06 09:28:43;;;;;;;5.97;5.20;;;;;19.00;99915.00;;;;5025739;28;20761;-74
2023/08/06 09:31:34;;;;;;;6.33;4.80;;;;;19.00;99916.00;;;;5020224;28;20239;-72
2023/08/06 09:34:22;;;;;;;10.70;4.80;;;;;19.00;99915.00;;;;5020153;28;20237;-70
2023/08/06 09:37:10;;;;;;;4.30;3.90;;;;;18.90;99921.00;;;;5018684;28;20619;-73
2023/08/06 09:39:56;;;;;;;5.30;3.90;;;;;19.10;99917.00;;;;5024630;28;20362;-73
2023/08/06 09:42:45;;;;;;;4.17;3.73;;;;;19.10;99916.00;;;;5023808;28;20232;-72
2023/08/06 09:45:34;;;;;;;4.53;3.50;;;;;18.90;99921.00;;;;5020149;28;20276;-72
2023/08/06 09:48:25;;;;;;;6.20;3.77;;;;;18.90;99920.00;;;;5024777;28;20234;-73
2023/08/06 09:51:14;;;;;;;3.97;3.57;;;;;19.10;99919.00;;;;5022571;28;20297;-72
2023/08/06 09:54:02;;;;;;;4.33;3.90;;;;;19.10;99933.00;;;;5019054;28;20236;-71
2023/08/06 09:57:06;;;;;;;5.20;3.90;;;;;19.10;99929.00;;;;5018775;28;20280;-71
2023/08/06 09:59:54;;;;;;;4.60;3.50;;;;;19.00;99935.00;;;;5023162;28;20237;-72
2023/08/06 10:02:41;;;;;;;4.30;3.90;;;;;19.10;99925.00;;;;5023687;28;20319;-71
2023/08/06 10:05:30;;;;;;;4.13;3.73;;;;;19.30;99928.00;;;;5021973;28;20621;-71
2023/08/06 10:08:17;;;;;;;5.23;4.17;;;;;19.20;99931.00;;;;5020844;28;20349;-72
2023/08/06 10:11:05;;;;;;;4.47;4.07;;;;;19.10;99919.00;;;;5018516;28;20271;-72
2023/08/06 10:13:55;;;;;;;4.97;4.47;;;;;19.20;99927.00;;;;5016122;28;20300;-71
2023/08/06 10:16:43;;;;;;;5.33;4.47;;;;;19.10;99931.00;;;;5022240;28;20225;-71
2023/08/06 10:19:31;;;;;;;5.07;4.63;;;;;19.20;99921.00;;;;5020511;28;20241;-71
2023/08/06 10:22:19;;;;;;;7.43;4.37;;;;;19.30;99931.00;;;;5013501;28;20264;-71
2023/08/06 10:25:06;;;;;;;5.17;4.67;;;;;19.60;99916.00;;;;5023366;28;20613;-71
2023/08/06 10:27:56;;;;;;;7.10;4.40;;;;;20.00;99899.00;;;;5023372;28;20264;-71
2023/08/06 10:30:44;;;;;;;6.53;4.60;;;;;20.90;99894.00;;;;5020466;28;20715;-71
2023/08/06 10:33:44;;;;;;;7.73;4.53;;;;;20.70;99904.00;;;;5023287;28;20345;-71
2023/08/06 10:36:32;;;;;;;6.03;4.00;;;;;20.30;99902.00;;;;5022382;28;20690;-72
2023/08/06 10:39:19;;;;;;;4.93;4.10;;;;;20.30;99901.00;;;;5020387;28;20282;-71
2023/08/06 10:42:21;;;;;;;4.47;4.07;;;;;20.80;99901.00;;;;5019947;28;20233;-72
2023/08/06 10:45:18;;;;;;;4.97;4.30;;;;;20.80;99906.00;;;;5023677;28;20305;-71
2023/08/06 10:48:05;;;;;;;4.57;3.97;;;;;19.90;99923.00;;;;5021329;28;20615;-71
2023/08/06 10:50:54;;;;;;;7.23;4.43;;;;;19.70;99921.00;;;;5023124;28;20435;-73
2023/08/06 10:53:43;;;;;;;5.87;4.53;;;;;19.60;99919.00;;;;5021379;28;20307;-72
2023/08/06 10:56:30;;;;;;;5.50;5.00;;;;;19.50;99925.00;;;;5023082;28;20235;-72
2023/08/06 10:59:17;;;;;;;6.00;5.20;;;;;19.50;99925.00;;;;5017763;28;20256;-72
2023/08/06 11:02:04;;;;;;;5.40;4.63;;;;;19.50;99934.00;;;;5018175;28;20243;-72
2023/08/06 11:04:51;;;;;;;5.90;5.27;;;;;19.50;99934.00;;;;5020012;28;20231;-72
2023/08/06 11:07:39;;;;;;;7.47;5.23;;;;;19.40;99937.00;;;;5022342;28;20237;-72
2023/08/06 11:10:26;;;;;;;6.20;5.60;;;;;19.50;99934.00;;;;5023920;28;20262;-72
2023/08/06 11:13:17;;;;;;;5.67;5.17;;;;;19.50;99939.00;;;;5021968;28;20378;-73
2023/08/06 11:16:04;;;;;;;6.20;5.60;;;;;19.30;99939.00;;;;5021317;28;20740;-72
2023/08/06 11:18:50;;;;;;;6.57;5.50;;;;;19.40;99935.00;;;;5021699;28;20242;-72
2023/08/06 11:21:37;;;;;;;6.60;5.60;;;;;19.40;99941.00;;;;5017631;28;20730;-72
2023/08/06 11:24:26;;;;;;;6.60;5.27;;;;;19.50;99942.00;;;;5022476;28;20231;-73
2023/08/06 11:27:13;;;;;;;6.83;5.50;;;;;19.70;99932.00;;;;5022053;28;20278;-71
2023/08/06 11:30:01;;;;;;;8.53;5.73;;;;;19.90;99927.00;;;;5015565;28;20324;-71
2023/08/06 11:32:49;;;;;;;5.87;5.23;;;;;19.90;99924.00;;;;5023699;28;20660;-72
2023/08/06 11:35:35;;;;;;;6.97;5.70;;;;;20.10;99916.00;;;;5025838;28;20274;-72
2023/08/06 11:38:21;;;;;;;5.47;4.97;;;;;20.20;99918.00;;;;5025436;28;20229;-72
2023/08/06 11:41:09;;;;;;;6.67;5.17;;;;;20.50;99916.00;;;;5018017;28;20298;-72
2023/08/06 11:43:56;;;;;;;5.40;4.90;;;;;20.50;99916.00;;;;5022981;28;20232;-72
2023/08/06 11:46:53;;;;;;;6.07;4.90;;;;;20.50;99919.00;;;;5026956;28;20724;-72
2023/08/06 11:49:41;;;;;;;5.20;4.70;;;;;20.90;99906.00;;;;5023648;28;20232;-69
2023/08/06 11:52:29;;;;;;;6.40;4.50;;;;;21.00;99910.00;;;;5024684;28;20302;-71
2023/08/06 11:55:15;;;;;;;4.87;4.30;;;;;21.00;99910.00;;;;5021942;28;20232;-71
2023/08/06 11:58:05;;;;;;;4.67;4.00;;;;;21.30;99909.00;;;;5023716;28;20821;-70
2023/08/06 12:00:51;;;;;;;5.30;4.33;;;;;21.70;99890.00;;;;5026929;28;20235;-70
2023/08/06 12:03:40;;;;;;;4.83;4.10;;;;;21.90;99898.00;;;;5026972;28;20232;-71
2023/08/06 12:06:28;;;;;;;4.40;3.97;;;;;22.00;99899.00;;;;5025389;28;20367;-71
2023/08/06 12:09:15;;;;;;;4.50;3.97;;;;;21.80;99903.00;;;;5022750;28;20253;-71
2023/08/06 12:12:04;;;;;;;4.27;3.87;;;;;21.70;99895.00;;;;5021711;28;20738;-71
2023/08/06 12:14:51;;;;;;;4.70;3.87;;;;;21.80;99896.00;;;;5023482;28;20245;-71
2023/08/06 12:17:39;;;;;;;4.73;3.60;;;;;21.70;99902.00;;;;5022158;28;20229;-71
2023/08/06 12:20:26;;;;;;;3.60;3.30;;;;;21.80;99901.00;;;;5024487;28;20229;-72
2023/08/06 12:23:15;;;;;;;4.37;3.33;;;;;21.90;99901.00;;;;5024924;28;20241;-72
2023/08/06 12:26:01;;;;;;;3.77;3.37;;;;;22.30;99911.00;;;;5024176;28;20785;-70
2023/08/06 12:28:49;;;;;;;3.90;3.10;;;;;22.40;99919.00;;;;5024325;28;20261;-71
2023/08/06 12:31:37;;;;;;;4.90;3.33;;;;;21.90;99922.00;;;;5021096;28;20241;-71
2023/08/06 12:34:24;;;;;;;3.63;3.33;;;;;21.80;99924.00;;;;5020622;28;20299;-71
2023/08/06 12:37:14;;;;;;;4.53;3.40;;;;;21.80;99930.00;;;;5025405;28;20230;-71
2023/08/06 12:40:01;;;;;;;4.00;3.60;;;;;21.50;99937.00;;;;5024588;28;20365;-69
2023/08/06 12:43:07;;;;;;;5.10;3.67;;;;;21.10;99944.00;;;;5025756;28;20241;-70
2023/08/06 12:45:53;;;;;;;4.20;3.30;;;;;21.20;99944.00;;;;5024379;28;20233;-72
2023/08/06 12:48:41;;;;;;;4.73;4.00;;;;;21.40;99942.00;;;;5026078;28;20607;-71
2023/08/06 12:51:27;;;;;;;4.43;3.93;;;;;21.10;99950.00;;;;5023775;28;20275;-71
2023/08/06 12:54:13;;;;;;;3.70;3.40;;;;;20.80;99968.00;;;;5025875;28;20229;-71
2023/08/06 12:57:00;;;;;;;3.37;3.07;;;;;20.00;99979.00;;;;5020485;28;20230;-70
2023/08/06 12:59:48;;;;;;;3.37;3.07;;;;;19.70;99986.00;;;;5026508;28;20233;-72
2023/08/06 13:02:34;;;;;;;3.40;2.63;;;;;19.40;99990.00;;;;5022785;28;20294;-72
2023/08/06 13:05:22;;;;;;;3.63;2.47;;;;;18.90;100008.00;;;;5021366;28;20263;-73
2023/08/06 13:08:09;;;;;;;2.40;2.20;;;;;18.90;100024.00;;;;5019229;28;20244;-73
2023/08/06 13:10:55;;;;;;;2.87;2.30;;;;;18.70;100026.00;;;;5021491;28;20234;-73
2023/08/06 13:13:42;;;;;;;2.10;1.90;;;;;18.50;100037.00;;;;5022533;28;20238;-73
2023/08/06 13:16:28;;;;;;;2.77;2.03;;;;;18.20;100047.00;;;;5021916;28;20724;-71
2023/08/06 13:19:15;;;;;;;1.70;1.40;;;;;18.10;100044.00;;;;5022267;28;20236;-71
2023/08/06 13:22:06;;;;;;;1.33;1.23;;;;;18.00;100036.00;;;;5022073;28;20242;-71
2023/08/06 13:24:53;;;;;;;2.00;1.37;;;;;18.00;100042.00;;;;5021075;28;20274;-74
2023/08/06 13:27:39;;;;;;;1.70;1.57;;;;;18.00;100045.00;;;;5015064;28;20238;-71
2023/08/06 13:30:25;;;;;;;1.40;1.20;;;;;17.90;100043.00;;;;5024375;28;20369;-71
2023/08/06 13:33:12;;;;;;;1.20;1.10;;;;;17.90;100043.00;;;;5023870;28;20238;-74
2023/08/06 13:35:58;;;;;;;0.90;0.90;;;;;17.60;100039.00;;;;5023058;28;20234;-73
2023/08/06 13:38:46;;;;;;;5.13;1.00;;;;;17.40;100027.00;;;;5021619;28;20309;-73
2023/08/06 13:41:32;;;;;;;0.97;0.97;;;;;17.60;100041.00;;;;5022572;28;20225;-73
2023/08/06 13:44:18;;;;;;;0.73;0.73;;;;;17.60;100051.00;;;;5022121;28;20321;-73
2023/08/06 13:47:05;;;;;;;0.70;0.70;;;;;17.70;100057.00;;;;5024919;28;20236;-73
2023/08/06 13:49:51;;;;;;;0.77;0.77;;;;;17.70;100069.00;;;;5021189;28;20726;-73
2023/08/06 13:52:37;;;;;;;0.80;0.80;;;;;17.70;100083.00;;;;5020306;28;20376;-74
2023/08/06 13:55:26;;;;;;;1.00;0.90;;;;;17.40;100080.00;;;;5024352;28;20275;-73